sensor_id;sensor_type;location;lat;lon;timestamp;temperature;humidity
43015;DHT22;28637;50.554;7.032;2023-06-14T00:02:53;13.30;99.90
43015;DHT22;28637;50.554;7.032;2023-06-14T00:07:56;13.20;99.90
43015;DHT22;28637;50.554;7.032;2023-06-14T00:12:56;13.20;99.90
43015;DHT22;28637;50.554;7.032;2023-06-14T00:17:57;13.20;99.90
43015;DHT22;28637;50.554;7.032;2023-06-14T00:23:01;13.10;99.90
43015;DHT22;28637;50.554;7.032;2023-06-14T00:28:02;13.10;99.90
43015;DHT22;28637;50.554;7.032;2023-06-14T00:33:03;13.00;99.90
43015;DHT22;28637;50.554;7.032;2023-06-14T00:38:04;13.00;99.90
43015;DHT22;28637;50.554;7.032;2023-06-14T00:43:05;13.10;99.90
43015;DHT22;28637;50.554;7.032;2023-06-14T00:48:06;13.00;99.90
43015;DHT22;28637;50.554;7.032;2023-06-14T00:53:08;12.80;99.90
43015;DHT22;28637;50.554;7.032;2023-06-14T00:58:09;12.70;99.90
43015;DHT22;28637;50.554;7.032;2023-06-14T01:03:10;12.60;99.90
43015;DHT22;28637;50.554;7.032;2023-06-14T01:08:31;12.40;99.90
43015;DHT22;28637;50.554;7.032;2023-06-14T01:13:43;12.40;99.90
43015;DHT22;28637;50.554;7.032;2023-06-14T01:18:46;12.40;99.90
43015;DHT22;28637;50.554;7.032;2023-06-14T01:23:48;12.30;99.90
43015;DHT22;28637;50.554;7.032;2023-06-14T01:28:54;12.10;99.90
43015;DHT22;28637;50.554;7.032;2023-06-14T01:33:58;12.10;99.90
43015;DHT22;28637;50.554;7.032;2023-06-14T01:38:59;12.10;99.90
43015;DHT22;28637;50.554;7.032;2023-06-14T01:44:01;12.20;99.90
43015;DHT22;28637;50.554;7.032;2023-06-14T01:49:02;12.20;99.90
43015;DHT22;28637;50.554;7.032;2023-06-14T01:54:03;12.10;99.90
43015;DHT22;28637;50.554;7.032;2023-06-14T01:59:03;12.10;99.90
43015;DHT22;28637;50.554;7.032;2023-06-14T02:04:04;12.10;99.90
43015;DHT22;28637;50.554;7.032;2023-06-14T02:09:05;12.00;99.90
43015;DHT22;28637;50.554;7.032;2023-06-14T02:14:06;11.80;99.90
43015;DHT22;28637;50.554;7.032;2023-06-14T02:19:07;11.70;99.90
43015;DHT22;28637;50.554;7.032;2023-06-14T02:24:08;11.80;99.90
43015;DHT22;28637;50.554;7.032;2023-06-14T02:29:09;11.80;99.90
43015;DHT22;28637;50.554;7.032;2023-06-14T02:34:12;11.70;99.90
43015;DHT22;28637;50.554;7.032;2023-06-14T02:39:13;11.70;99.90
43015;DHT22;28637;50.554;7.032;2023-06-14T02:44:14;11.70;99.90
43015;DHT22;28637;50.554;7.032;2023-06-14T02:49:15;11.60;99.90
43015;DHT22;28637;50.554;7.032;2023-06-14T02:54:16;11.40;99.90
43015;DHT22;28637;50.554;7.032;2023-06-14T02:59:16;11.30;99.90
43015;DHT22;28637;50.554;7.032;2023-06-14T03:04:17;11.30;99.90
43015;DHT22;28637;50.554;7.032;2023-06-14T03:09:18;11.40;99.90
43015;DHT22;28637;50.554;7.032;2023-06-14T03:14:19;11.30;99.90
43015;DHT22;28637;50.554;7.032;2023-06-14T03:19:22;11.20;99.90
43015;DHT22;28637;50.554;7.032;2023-06-14T03:24:24;11.20;99.90
43015;DHT22;28637;50.554;7.032;2023-06-14T03:29:24;11.30;99.90
43015;DHT22;28637;50.554;7.032;2023-06-14T03:34:26;11.30;99.90
43015;DHT22;28637;50.554;7.032;2023-06-14T03:39:27;11.20;99.90
43015;DHT22;28637;50.554;7.032;2023-06-14T03:44:27;10.90;99.90
43015;DHT22;28637;50.554;7.032;2023-06-14T03:49:28;11.00;99.90
43015;DHT22;28637;50.554;7.032;2023-06-14T03:54:29;11.20;99.90
43015;DHT22;28637;50.554;7.032;2023-06-14T03:59:29;11.20;99.90
43015;DHT22;28637;50.554;7.032;2023-06-14T04:04:30;11.10;99.90
43015;DHT22;28637;50.554;7.032;2023-06-14T04:09:32;11.20;99.90
43015;DHT22;28637;50.554;7.032;2023-06-14T04:14:32;11.30;99.90
43015;DHT22;28637;50.554;7.032;2023-06-14T04:19:33;11.40;99.90
43015;DHT22;28637;50.554;7.032;2023-06-14T04:24:34;11.50;99.90
43015;DHT22;28637;50.554;7.032;2023-06-14T04:29:35;11.60;99.90
43015;DHT22;28637;50.554;7.032;2023-06-14T04:34:36;11.80;99.90
43015;DHT22;28637;50.554;7.032;2023-06-14T04:39:37;12.00;99.90
43015;DHT22;28637;50.554;7.032;2023-06-14T04:44:38;12.20;99.90
43015;DHT22;28637;50.554;7.032;2023-06-14T04:49:40;12.40;99.90
43015;DHT22;28637;50.554;7.032;2023-06-14T04:54:41;12.50;99.90
43015;DHT22;28637;50.554;7.032;2023-06-14T04:59:45;12.80;99.90
43015;DHT22;28637;50.554;7.032;2023-06-14T05:04:45;13.00;99.90
43015;DHT22;28637;50.554;7.032;2023-06-14T05:09:47;13.10;99.90
43015;DHT22;28637;50.554;7.032;2023-06-14T05:14:48;13.40;99.90
43015;DHT22;28637;50.554;7.032;2023-06-14T05:19:49;13.60;99.90
43015;DHT22;28637;50.554;7.032;2023-06-14T05:24:50;13.90;99.90
43015;DHT22;28637;50.554;7.032;2023-06-14T05:29:51;14.20;99.90
43015;DHT22;28637;50.554;7.032;2023-06-14T05:34:56;14.60;99.90
43015;DHT22;28637;50.554;7.032;2023-06-14T05:39:56;14.80;99.90
43015;DHT22;28637;50.554;7.032;2023-06-14T05:44:57;15.20;99.90
43015;DHT22;28637;50.554;7.032;2023-06-14T05:49:57;15.50;99.90
43015;DHT22;28637;50.554;7.032;2023-06-14T05:54:58;15.80;99.90
43015;DHT22;28637;50.554;7.032;2023-06-14T05:59:58;16.00;99.90
43015;DHT22;28637;50.554;7.032;2023-06-14T06:04:59;16.50;99.90
43015;DHT22;28637;50.554;7.032;2023-06-14T06:10:00;16.80;99.90
43015;DHT22;28637;50.554;7.032;2023-06-14T06:15:01;17.20;99.90
43015;DHT22;28637;50.554;7.032;2023-06-14T06:20:04;17.70;99.90
43015;DHT22;28637;50.554;7.032;2023-06-14T06:25:06;18.10;99.90
43015;DHT22;28637;50.554;7.032;2023-06-14T06:30:07;18.50;99.90
43015;DHT22;28637;50.554;7.032;2023-06-14T06:35:08;18.80;99.90
43015;DHT22;28637;50.554;7.032;2023-06-14T06:40:11;19.10;99.90
43015;DHT22;28637;50.554;7.032;2023-06-14T06:45:12;19.50;99.90
43015;DHT22;28637;50.554;7.032;2023-06-14T06:50:13;19.70;99.90
43015;DHT22;28637;50.554;7.032;2023-06-14T06:55:13;19.90;99.90
43015;DHT22;28637;50.554;7.032;2023-06-14T07:00:15;20.10;99.90
43015;DHT22;28637;50.554;7.032;2023-06-14T07:05:16;20.40;99.90
43015;DHT22;28637;50.554;7.032;2023-06-14T07:10:16;20.60;99.90
43015;DHT22;28637;50.554;7.032;2023-06-14T07:15:17;20.70;99.70
43015;DHT22;28637;50.554;7.032;2023-06-14T07:20:18;20.90;99.80
43015;DHT22;28637;50.554;7.032;2023-06-14T07:25:18;20.90;99.90
43015;DHT22;28637;50.554;7.032;2023-06-14T07:30:21;21.00;97.70
43015;DHT22;28637;50.554;7.032;2023-06-14T07:35:26;21.10;99.60
43015;DHT22;28637;50.554;7.032;2023-06-14T07:40:26;21.10;97.10
43015;DHT22;28637;50.554;7.032;2023-06-14T07:45:27;21.30;97.40
43015;DHT22;28637;50.554;7.032;2023-06-14T07:50:28;21.30;96.40
43015;DHT22;28637;50.554;7.032;2023-06-14T07:55:29;21.40;96.50
43015;DHT22;28637;50.554;7.032;2023-06-14T08:00:31;21.50;95.60
43015;DHT22;28637;50.554;7.032;2023-06-14T08:05:31;21.70;95.40
43015;DHT22;28637;50.554;7.032;2023-06-14T08:10:32;21.80;94.90
43015;DHT22;28637;50.554;7.032;2023-06-14T08:15:33;21.90;93.90
43015;DHT22;28637;50.554;7.032;2023-06-14T08:20:34;22.10;94.80
43015;DHT22;28637;50.554;7.032;2023-06-14T08:25:35;22.10;92.70
43015;DHT22;28637;50.554;7.032;2023-06-14T08:30:36;22.20;93.40
43015;DHT22;28637;50.554;7.032;2023-06-14T08:35:36;22.00;92.70
43015;DHT22;28637;50.554;7.032;2023-06-14T08:40:40;22.00;93.00
43015;DHT22;28637;50.554;7.032;2023-06-14T08:45:42;22.20;92.80
43015;DHT22;28637;50.554;7.032;2023-06-14T08:50:43;22.40;93.60
43015;DHT22;28637;50.554;7.032;2023-06-14T08:55:45;22.60;93.00
43015;DHT22;28637;50.554;7.032;2023-06-14T09:00:48;22.70;90.90
43015;DHT22;28637;50.554;7.032;2023-06-14T09:05:50;22.70;90.00
43015;DHT22;28637;50.554;7.032;2023-06-14T09:10:52;22.70;90.00
43015;DHT22;28637;50.554;7.032;2023-06-14T09:15:53;22.80;88.30
43015;DHT22;28637;50.554;7.032;2023-06-14T09:20:54;23.00;89.80
43015;DHT22;28637;50.554;7.032;2023-06-14T09:25:54;23.10;86.90
43015;DHT22;28637;50.554;7.032;2023-06-14T09:30:55;23.20;85.10
43015;DHT22;28637;50.554;7.032;2023-06-14T09:35:56;23.20;85.20
43015;DHT22;28637;50.554;7.032;2023-06-14T09:40:58;23.30;82.60
43015;DHT22;28637;50.554;7.032;2023-06-14T09:46:00;23.50;80.70
43015;DHT22;28637;50.554;7.032;2023-06-14T09:51:01;23.60;75.50
43015;DHT22;28637;50.554;7.032;2023-06-14T09:56:04;23.60;80.30
43015;DHT22;28637;50.554;7.032;2023-06-14T10:01:08;23.90;78.50
43015;DHT22;28637;50.554;7.032;2023-06-14T10:06:10;23.90;77.70
43015;DHT22;28637;50.554;7.032;2023-06-14T10:11:13;23.90;76.00
43015;DHT22;28637;50.554;7.032;2023-06-14T10:16:34;24.00;75.30
43015;DHT22;28637;50.554;7.032;2023-06-14T10:26:58;23.90;74.90
43015;DHT22;28637;50.554;7.032;2023-06-14T10:32:00;23.90;75.30
43015;DHT22;28637;50.554;7.032;2023-06-14T10:37:13;24.10;75.60
43015;DHT22;28637;50.554;7.032;2023-06-14T10:42:14;24.30;74.50
43015;DHT22;28637;50.554;7.032;2023-06-14T10:47:34;24.30;75.00
43015;DHT22;28637;50.554;7.032;2023-06-14T10:52:41;24.40;74.90
43015;DHT22;28637;50.554;7.032;2023-06-14T11:13:52;24.90;73.50
43015;DHT22;28637;50.554;7.032;2023-06-14T11:18:53;24.80;72.00
43015;DHT22;28637;50.554;7.032;2023-06-14T11:23:54;25.00;72.30
43015;DHT22;28637;50.554;7.032;2023-06-14T11:28:57;25.20;72.20
43015;DHT22;28637;50.554;7.032;2023-06-14T11:33:59;25.20;72.10
43015;DHT22;28637;50.554;7.032;2023-06-14T11:39:01;25.40;73.40
43015;DHT22;28637;50.554;7.032;2023-06-14T11:44:04;25.70;72.40
43015;DHT22;28637;50.554;7.032;2023-06-14T11:49:07;25.80;73.20
43015;DHT22;28637;50.554;7.032;2023-06-14T11:54:09;25.90;74.00
43015;DHT22;28637;50.554;7.032;2023-06-14T11:59:10;26.10;74.20
43015;DHT22;28637;50.554;7.032;2023-06-14T12:04:10;26.10;72.00
43015;DHT22;28637;50.554;7.032;2023-06-14T12:09:11;26.10;71.80
43015;DHT22;28637;50.554;7.032;2023-06-14T12:14:17;26.10;71.00
43015;DHT22;28637;50.554;7.032;2023-06-14T12:19:17;26.20;69.50
43015;DHT22;28637;50.554;7.032;2023-06-14T12:24:18;26.30;71.00
43015;DHT22;28637;50.554;7.032;2023-06-14T12:29:19;26.40;69.60
43015;DHT22;28637;50.554;7.032;2023-06-14T12:34:20;26.40;69.30
43015;DHT22;28637;50.554;7.032;2023-06-14T12:39:21;26.60;67.60
43015;DHT22;28637;50.554;7.032;2023-06-14T12:44:22;26.90;66.50
43015;DHT22;28637;50.554;7.032;2023-06-14T12:49:23;27.10;67.70
43015;DHT22;28637;50.554;7.032;2023-06-14T12:54:23;27.20;66.00
43015;DHT22;28637;50.554;7.032;2023-06-14T12:59:26;27.40;66.50
43015;DHT22;28637;50.554;7.032;2023-06-14T13:04:33;27.40;65.50
43015;DHT22;28637;50.554;7.032;2023-06-14T13:09:33;27.10;64.90
43015;DHT22;28637;50.554;7.032;2023-06-14T13:14:34;27.30;68.10
43015;DHT22;28637;50.554;7.032;2023-06-14T13:19:35;27.20;66.30
43015;DHT22;28637;50.554;7.032;2023-06-14T13:24:36;27.30;66.40
43015;DHT22;28637;50.554;7.032;2023-06-14T13:29:37;27.60;66.70
43015;DHT22;28637;50.554;7.032;2023-06-14T13:34:37;27.70;65.20
43015;DHT22;28637;50.554;7.032;2023-06-14T13:39:38;27.90;65.00
43015;DHT22;28637;50.554;7.032;2023-06-14T13:44:39;28.10;64.30
43015;DHT22;28637;50.554;7.032;2023-06-14T13:49:40;28.40;64.20
43015;DHT22;28637;50.554;7.032;2023-06-14T13:54:41;28.40;63.30
43015;DHT22;28637;50.554;7.032;2023-06-14T13:59:43;28.20;63.40
43015;DHT22;28637;50.554;7.032;2023-06-14T14:04:46;28.30;62.90
43015;DHT22;28637;50.554;7.032;2023-06-14T14:09:53;28.40;62.60
43015;DHT22;28637;50.554;7.032;2023-06-14T14:14:53;28.10;62.20
43015;DHT22;28637;50.554;7.032;2023-06-14T14:19:54;28.00;63.60
43015;DHT22;28637;50.554;7.032;2023-06-14T14:24:55;27.80;64.80
43015;DHT22;28637;50.554;7.032;2023-06-14T14:29:56;27.70;62.90
43015;DHT22;28637;50.554;7.032;2023-06-14T14:34:56;28.00;62.20
43015;DHT22;28637;50.554;7.032;2023-06-14T14:39:57;28.10;61.60
43015;DHT22;28637;50.554;7.032;2023-06-14T14:44:57;28.30;62.10
43015;DHT22;28637;50.554;7.032;2023-06-14T14:49:58;28.60;61.50
43015;DHT22;28637;50.554;7.032;2023-06-14T14:54:59;28.80;62.60
43015;DHT22;28637;50.554;7.032;2023-06-14T15:00:01;28.50;62.30
43015;DHT22;28637;50.554;7.032;2023-06-14T15:05:02;28.30;61.70
43015;DHT22;28637;50.554;7.032;2023-06-14T15:10:05;27.70;61.00
43015;DHT22;28637;50.554;7.032;2023-06-14T15:15:06;27.50;62.70
43015;DHT22;28637;50.554;7.032;2023-06-14T15:20:07;27.90;62.30
43015;DHT22;28637;50.554;7.032;2023-06-14T15:25:08;28.50;62.70
43015;DHT22;28637;50.554;7.032;2023-06-14T15:30:09;29.00;61.60
43015;DHT22;28637;50.554;7.032;2023-06-14T15:35:10;29.00;60.60
43015;DHT22;28637;50.554;7.032;2023-06-14T15:40:12;28.20;61.30
43015;DHT22;28637;50.554;7.032;2023-06-14T15:45:13;28.10;62.40
43015;DHT22;28637;50.554;7.032;2023-06-14T15:50:14;28.50;61.20
43015;DHT22;28637;50.554;7.032;2023-06-14T15:55:14;28.80;60.00
43015;DHT22;28637;50.554;7.032;2023-06-14T16:00:15;29.10;60.30
43015;DHT22;28637;50.554;7.032;2023-06-14T16:05:16;29.20;60.50
43015;DHT22;28637;50.554;7.032;2023-06-14T16:10:17;29.30;59.50
43015;DHT22;28637;50.554;7.032;2023-06-14T16:15:17;29.00;59.30
43015;DHT22;28637;50.554;7.032;2023-06-14T16:20:18;28.40;59.30
43015;DHT22;28637;50.554;7.032;2023-06-14T16:25:19;27.50;60.10
43015;DHT22;28637;50.554;7.032;2023-06-14T16:30:19;27.50;61.70
43015;DHT22;28637;50.554;7.032;2023-06-14T16:35:20;27.70;61.60
43015;DHT22;28637;50.554;7.032;2023-06-14T16:40:20;27.90;60.10
43015;DHT22;28637;50.554;7.032;2023-06-14T16:45:21;28.30;61.20
43015;DHT22;28637;50.554;7.032;2023-06-14T16:50:23;28.40;59.20
43015;DHT22;28637;50.554;7.032;2023-06-14T16:55:24;28.20;59.80
43015;DHT22;28637;50.554;7.032;2023-06-14T17:00:25;28.30;59.30
43015;DHT22;28637;50.554;7.032;2023-06-14T17:05:25;28.20;59.70
43015;DHT22;28637;50.554;7.032;2023-06-14T17:10:26;28.30;59.40
43015;DHT22;28637;50.554;7.032;2023-06-14T17:15:27;28.20;59.10
43015;DHT22;28637;50.554;7.032;2023-06-14T17:20:27;28.00;59.80
43015;DHT22;28637;50.554;7.032;2023-06-14T17:25:28;27.90;58.30
43015;DHT22;28637;50.554;7.032;2023-06-14T17:30:30;27.80;59.80
43015;DHT22;28637;50.554;7.032;2023-06-14T17:35:30;27.70;58.30
43015;DHT22;28637;50.554;7.032;2023-06-14T17:40:32;27.60;59.00
43015;DHT22;28637;50.554;7.032;2023-06-14T17:45:33;27.60;59.40
43015;DHT22;28637;50.554;7.032;2023-06-14T17:50:33;27.40;58.90
43015;DHT22;28637;50.554;7.032;2023-06-14T17:55:39;27.20;59.30
43015;DHT22;28637;50.554;7.032;2023-06-14T18:00:39;27.10;58.80
43015;DHT22;28637;50.554;7.032;2023-06-14T18:05:43;27.00;58.10
43015;DHT22;28637;50.554;7.032;2023-06-14T18:10:44;26.80;58.70
43015;DHT22;28637;50.554;7.032;2023-06-14T18:15:45;26.70;59.20
43015;DHT22;28637;50.554;7.032;2023-06-14T18:20:45;26.60;60.50
43015;DHT22;28637;50.554;7.032;2023-06-14T18:25:46;26.40;59.60
43015;DHT22;28637;50.554;7.032;2023-06-14T18:30:47;26.20;59.50
43015;DHT22;28637;50.554;7.032;2023-06-14T18:35:47;25.70;63.50
43015;DHT22;28637;50.554;7.032;2023-06-14T18:40:48;25.40;62.30
43015;DHT22;28637;50.554;7.032;2023-06-14T18:45:51;25.10;62.40
43015;DHT22;28637;50.554;7.032;2023-06-14T18:50:52;24.80;66.10
43015;DHT22;28637;50.554;7.032;2023-06-14T18:55:53;24.20;68.40
43015;DHT22;28637;50.554;7.032;2023-06-14T19:00:54;23.80;70.50
43015;DHT22;28637;50.554;7.032;2023-06-14T19:05:54;23.50;69.80
43015;DHT22;28637;50.554;7.032;2023-06-14T19:10:58;23.10;72.40
43015;DHT22;28637;50.554;7.032;2023-06-14T19:15:58;22.70;74.00
43015;DHT22;28637;50.554;7.032;2023-06-14T19:20:59;22.40;74.40
43015;DHT22;28637;50.554;7.032;2023-06-14T19:25:59;22.00;78.50
43015;DHT22;28637;50.554;7.032;2023-06-14T19:31:00;21.40;80.70
43015;DHT22;28637;50.554;7.032;2023-06-14T19:36:01;20.70;83.00
43015;DHT22;28637;50.554;7.032;2023-06-14T19:41:01;19.80;87.10
43015;DHT22;28637;50.554;7.032;2023-06-14T19:46:02;19.10;89.40
43015;DHT22;28637;50.554;7.032;2023-06-14T19:51:03;18.60;89.60
43015;DHT22;28637;50.554;7.032;2023-06-14T19:56:04;18.20;91.10
43015;DHT22;28637;50.554;7.032;2023-06-14T20:01:05;17.80;91.40
43015;DHT22;28637;50.554;7.032;2023-06-14T20:06:06;17.60;91.90
43015;DHT22;28637;50.554;7.032;2023-06-14T20:11:07;17.40;92.50
43015;DHT22;28637;50.554;7.032;2023-06-14T20:16:07;17.20;93.70
43015;DHT22;28637;50.554;7.032;2023-06-14T20:21:08;17.10;95.60
43015;DHT22;28637;50.554;7.032;2023-06-14T20:26:09;16.80;98.40
43015;DHT22;28637;50.554;7.032;2023-06-14T20:31:10;16.60;99.90
43015;DHT22;28637;50.554;7.032;2023-06-14T20:36:11;16.50;99.90
43015;DHT22;28637;50.554;7.032;2023-06-14T20:41:12;16.30;99.90
43015;DHT22;28637;50.554;7.032;2023-06-14T20:46:13;16.10;99.90
43015;DHT22;28637;50.554;7.032;2023-06-14T20:51:14;15.70;99.90
43015;DHT22;28637;50.554;7.032;2023-06-14T20:56:15;15.60;99.90
43015;DHT22;28637;50.554;7.032;2023-06-14T21:01:16;15.50;99.90
43015;DHT22;28637;50.554;7.032;2023-06-14T21:06:16;15.30;99.90
43015;DHT22;28637;50.554;7.032;2023-06-14T21:11:17;15.10;99.90
43015;DHT22;28637;50.554;7.032;2023-06-14T21:16:18;14.90;99.90
43015;DHT22;28637;50.554;7.032;2023-06-14T21:21:19;14.80;99.90
43015;DHT22;28637;50.554;7.032;2023-06-14T21:26:19;14.80;99.90
43015;DHT22;28637;50.554;7.032;2023-06-14T21:31:23;14.70;99.90
43015;DHT22;28637;50.554;7.032;2023-06-14T21:36:24;14.40;99.90
43015;DHT22;28637;50.554;7.032;2023-06-14T21:41:24;14.40;99.90
43015;DHT22;28637;50.554;7.032;2023-06-14T21:46:29;14.40;99.90
43015;DHT22;28637;50.554;7.032;2023-06-14T21:51:31;14.30;99.90
43015;DHT22;28637;50.554;7.032;2023-06-14T21:56:32;14.10;99.90
43015;DHT22;28637;50.554;7.032;2023-06-14T22:01:33;14.10;99.90
43015;DHT22;28637;50.554;7.032;2023-06-14T22:06:33;14.10;99.90
43015;DHT22;28637;50.554;7.032;2023-06-14T22:11:34;14.00;99.90
43015;DHT22;28637;50.554;7.032;2023-06-14T22:16:35;13.90;99.90
43015;DHT22;28637;50.554;7.032;2023-06-14T22:21:36;13.80;99.90
43015;DHT22;28637;50.554;7.032;2023-06-14T22:26:41;13.80;99.90
43015;DHT22;28637;50.554;7.032;2023-06-14T22:31:48;13.70;99.90
43015;DHT22;28637;50.554;7.032;2023-06-14T22:36:48;13.60;99.90
43015;DHT22;28637;50.554;7.032;2023-06-14T22:41:49;13.50;99.90
43015;DHT22;28637;50.554;7.032;2023-06-14T22:46:50;13.40;99.90
43015;DHT22;28637;50.554;7.032;2023-06-14T22:51:55;13.40;99.90
43015;DHT22;28637;50.554;7.032;2023-06-14T22:56:56;13.40;99.90
43015;DHT22;28637;50.554;7.032;2023-06-14T23:02:00;13.20;99.90
43015;DHT22;28637;50.554;7.032;2023-06-14T23:07:00;13.10;99.90
43015;DHT22;28637;50.554;7.032;2023-06-14T23:12:05;13.00;99.90
43015;DHT22;28637;50.554;7.032;2023-06-14T23:17:08;12.90;99.90
43015;DHT22;28637;50.554;7.032;2023-06-14T23:22:08;12.90;99.90
43015;DHT22;28637;50.554;7.032;2023-06-14T23:27:13;12.80;99.90
43015;DHT22;28637;50.554;7.032;2023-06-14T23:32:14;12.80;99.90
43015;DHT22;28637;50.554;7.032;2023-06-14T23:37:16;12.70;99.90
43015;DHT22;28637;50.554;7.032;2023-06-14T23:42:17;12.60;99.90
43015;DHT22;28637;50.554;7.032;2023-06-14T23:47:19;12.50;99.90
43015;DHT22;28637;50.554;7.032;2023-06-14T23:52:19;12.40;99.90
43015;DHT22;28637;50.554;7.032;2023-06-14T23:57:22;12.40;99.90
